Aérodrome :
LOGIN :

S'inscrire | Disclaimer

   EN    FR    IT 

 










Légende :    VFR   VFR Marginal   IFR   IFR Intensif   IFR Très Intensif
Visi : 
Plafond : 
>= 8 km
>= 3000ft
5 à 8 km
1000 à 3000 ft
1500m à 5 km
500 à 1000 ft
800 à 1500m
200 à 500 ft
< 800m
< 200 ft
Symboles :   Orages  Brouillard  Fortes neiges  Fortes précipitations  Vent > 20 kt
SIGMETs :   Divers  Orages  Givrage  Turbulence  Onde Orograph.  Cendres Volcan.







- Altitude de l'aérodrome : 157 ft
- Code IATA : LIL
- Voir les cartes d'approche


LFQQ - Lille Lesquin

DERNIER METAR :
  • 191230Z AUTO 36007KT 300V030 9999 FEW025 17/10 Q1024 NOSIG

METARs EXPIRÉS :
  • 191200Z AUTO 36007KT 320V030 7000 FEW022 16/10 Q1024 NOSIG
  • 191130Z AUTO 02007KT 340V070 9999 FEW022 16/10 Q1024 NOSIG
  • 191100Z AUTO 04006KT 360V060 9999 FEW021 16/10 Q1024 NOSIG
  • 191030Z AUTO 03005KT 340V060 9999 FEW018 15/10 Q1025 NOSIG
  • 191000Z AUTO 04007KT 010V070 9000 FEW039 14/10 Q1025 NOSIG

TAF TAF LFQQ
Valide du 19 à 12h jusqu'au 20 à 18h UTC


191100Z 1912/2018 01012KT 9999 SCT035
BECMG 1919/1921 VRB02KT
TEMPO 2002/2007 3000 MIFG
ATIS : +33 3 20 16 19 54
Pas de NOTAMs connus pour ce terrain.



MET'MAP, la Météo Aéronautique d'un coup d'oeil ! - Copyright ORBIFLY Décembre 2007 - Disclaimer

ORBIFLY MET'MAP TEAM :

Programmation & Développement : Alexandra Zaïnal
Conception & Développement : Baudouin d'Aumeries
Co-Programmation & Développement : Marc-Olivier Méhu
Soutien technique & logistique : Manuel Goepfert

Contact : metmap@orbifly.com




SOURCES & CREDITS :

   NOAA